Tuesday, January 22, 2019, 3:59 PM EST
Back to Local

KBDR, Sikorsky Memorial Airport

Location: Stratford, CT, United States Lat: 41.167
Local Time: 3:59 PM EST (20:59 GMT) Lon: -73.133
Time Zone: US/Eastern Elev: 9 ft

Show me the last for .
Show Decoded

2019-01-22 14:52 METAR KBDR 221952Z 29009KT 10SM CLR M03/M16 A3061 RMK AO2 SLP364 T10281156 =
2019-01-22 13:52 METAR KBDR 221852Z 28007KT 10SM CLR M03/M16 A3062 RMK AO2 SLP367 T10281156 =
2019-01-22 12:52 METAR KBDR 221752Z 30013KT 10SM CLR M04/M16 A3061 RMK AO2 SLP364 T10391161 11039
                 21117 58009 =
2019-01-22 11:52 METAR KBDR 221652Z 29012G15KT 10SM CLR M05/M17 A3061 RMK AO2 SLP364 T10501167 =
2019-01-22 10:52 METAR KBDR 221552Z 30011KT 10SM CLR M06/M18 A3064 RMK AO2 SLP376 T10611178 =
2019-01-22 09:52 METAR KBDR 221452Z 30008KT 10SM CLR M08/M18 A3064 RMK AO2 SLP374 T10831178 51019
                 =
2019-01-22 08:52 METAR KBDR 221352Z 33008KT 10SM CLR M10/M18 A3063 RMK AO2 SLP373 T11001183 =
2019-01-22 07:52 METAR KBDR 221252Z 30005KT 10SM CLR M11/M18 A3060 RMK AO2 SLP362 T11111183 =
2019-01-22 06:52 METAR KBDR 221152Z 28004KT 10SM CLR M12/M18 A3058 RMK AO2 SLP355 T11171183 11111
                 21117 51049 =
2019-01-22 05:52 METAR KBDR 221052Z AUTO 30011KT 10SM CLR M11/M19 A3054 RMK AO2 SLP341 T11111194
                 =
2019-01-22 04:52 METAR KBDR 220952Z AUTO 28007KT 10SM CLR M12/M19 A3048 RMK AO2 SLP322 T11171189
                 =
2019-01-22 03:52 METAR KBDR 220852Z AUTO VRB04KT 10SM CLR M11/M19 A3044 RMK AO2 SLP306 T11111189
                 53027 =
2019-01-22 02:52 METAR KBDR 220752Z AUTO 30010G18KT 10SM CLR M12/M19 A3040 RMK AO2 SLP292
                 T11171189 =
2019-01-22 01:52 METAR KBDR 220652Z AUTO 30015KT 10SM CLR M11/M18 A3037 RMK AO2 SLP282 T11111183
                 =
2019-01-22 00:52 METAR KBDR 220552Z AUTO 30009G19KT 10SM CLR M11/M19 A3036 RMK AO2 SLP279
                 T11111189 11111 21117 51032 =
2019-01-21 23:52 METAR KBDR 220452Z AUTO 30011KT 10SM CLR M11/M19 A3033 RMK AO2 SLP271 T11111194
                 410891150 =
2019-01-21 22:52 METAR KBDR 220352Z AUTO 30014G23KT 10SM CLR M12/M20 A3030 RMK AO2 SLP260
                 T11171200 =
2019-01-21 21:52 METAR KBDR 220252Z 30013G21KT 10SM CLR M12/M21 A3026 RMK AO2 SLP247 T11171206
                 51038 =
2019-01-21 20:52 METAR KBDR 220152Z 30012G20KT 10SM CLR M12/M21 A3024 RMK AO2 SLP239 T11171211 =
2019-01-21 19:52 METAR KBDR 220052Z 30012G22KT 10SM CLR M12/M21 A3020 RMK AO2 PK WND 32030/2358
                 SLP225 T11171211 =
2019-01-21 18:52 METAR KBDR 212352Z 30020G25KT 10SM CLR M11/M21 A3015 RMK AO2 PK WND 30027/2258
                 SLP209 T11111206 11089 21111 53045 =
2019-01-21 17:52 METAR KBDR 212252Z 29013G21KT 10SM CLR M10/M20 A3011 RMK AO2 PK WND 29026/2211
                 SLP195 T11001200 =
2019-01-21 16:52 METAR KBDR 212152Z 31015G21KT 10SM CLR M09/M19 A3006 RMK AO2 PK WND 29032/2121
                 SLP177 T10941189 =

Support USWX by starting your Amazon purchase here.